Time;durP1;ratioP1;P1;durP2;ratioP2;P2;SDS_P1;SDS_P2;PMS_P1;PMS_P2;Temp;Humidity;BMP_temperature;BMP_pressure;BME280_temperature;BME280_humidity;BME280_pressure;Samples;Min_cycle;Max_cycle;Signal;HPM_P1;HPM_P2
2023/08/25 00:00:31;;;;;;;1.88;1.55;;;23.70;66.60;;;;;;5053964;28;20171;-69
2023/08/25 00:02:57;;;;;;;2.05;1.55;;;23.70;66.60;;;;;;5052928;28;20202;-70
2023/08/25 00:05:22;;;;;;;2.92;2.10;;;23.70;66.50;;;;;;5053358;28;20294;-70
2023/08/25 00:07:48;;;;;;;3.67;2.10;;;23.70;66.50;;;;;;5053632;28;20217;-70
2023/08/25 00:10:14;;;;;;;1.88;1.70;;;23.70;66.50;;;;;;5052664;28;20182;-69
2023/08/25 00:12:39;;;;;;;2.28;1.80;;;23.70;66.50;;;;;;5053374;28;20649;-69
2023/08/25 00:15:05;;;;;;;2.83;1.90;;;23.70;66.50;;;;;;5033545;28;20191;-68
2023/08/25 00:17:32;;;;;;;2.22;1.90;;;23.70;66.50;;;;;;5032810;28;20697;-68
2023/08/25 00:19:58;;;;;;;2.88;1.67;;;23.70;66.50;;;;;;5033510;28;20187;-68
2023/08/25 00:22:24;;;;;;;1.88;1.58;;;23.60;66.50;;;;;;5032620;28;20172;-68
2023/08/25 00:24:50;;;;;;;1.90;1.73;;;23.60;66.50;;;;;;5033361;28;20259;-68
2023/08/25 00:27:16;;;;;;;2.30;1.65;;;23.70;66.50;;;;;;5033130;28;20263;-69
2023/08/25 00:29:41;;;;;;;2.22;1.67;;;23.60;66.50;;;;;;5032866;28;20263;-70
2023/08/25 00:32:07;;;;;;;2.20;2.00;;;23.60;66.60;;;;;;5033236;28;20180;-71
2023/08/25 00:34:32;;;;;;;1.73;1.58;;;23.60;66.50;;;;;;5033475;28;20176;-70
2023/08/25 00:36:59;;;;;;;2.15;1.73;;;23.60;66.50;;;;;;5032506;28;20180;-70
2023/08/25 00:39:24;;;;;;;1.83;1.73;;;23.60;66.60;;;;;;5033084;28;20176;-69
2023/08/25 00:41:50;;;;;;;1.58;1.48;;;23.60;66.60;;;;;;5033069;28;20178;-68
2023/08/25 00:44:16;;;;;;;3.78;2.13;;;23.60;67.40;;;;;;5032284;28;20575;-69
2023/08/25 00:46:41;;;;;;;2.38;1.80;;;23.60;66.50;;;;;;5033189;28;20619;-69
2023/08/25 00:49:07;;;;;;;2.40;2.15;;;23.60;66.60;;;;;;5032555;28;20224;-68
2023/08/25 00:51:32;;;;;;;2.42;1.60;;;23.60;66.60;;;;;;5032304;28;20168;-68
2023/08/25 00:53:58;;;;;;;1.50;1.40;;;23.60;66.60;;;;;;5032814;28;20259;-68
2023/08/25 00:56:23;;;;;;;2.47;1.80;;;23.60;66.60;;;;;;5031608;28;20222;-68
2023/08/25 00:58:49;;;;;;;2.70;1.70;;;23.60;66.60;;;;;;5032490;28;20164;-69
2023/08/25 01:01:15;;;;;;;1.60;1.50;;;23.60;66.60;;;;;;5031668;28;20259;-70
2023/08/25 01:03:40;;;;;;;2.03;1.73;;;23.50;67.40;;;;;;5031628;28;20698;-71
2023/08/25 01:06:08;;;;;;;2.17;1.70;;;23.60;66.60;;;;;;5030450;28;20222;-70
2023/08/25 01:08:34;;;;;;;2.20;1.95;;;23.60;66.60;;;;;;5032851;28;20182;-70
2023/08/25 01:11:14;;;;;;;1.77;1.67;;;23.60;66.60;;;;;;5032381;28;20180;-68
2023/08/25 01:14:17;;;;;;;1.73;1.63;;;23.50;66.50;;;;;;5032120;28;20647;-68
2023/08/25 01:16:45;;;;;;;2.42;1.73;;;23.60;66.60;;;;;;5032725;28;20179;-68
2023/08/25 01:19:39;;;;;;;2.78;1.70;;;23.50;66.50;;;;;;5030639;28;20266;-68
2023/08/25 01:22:06;;;;;;;2.70;1.70;;;23.50;66.50;;;;;;5032703;28;20172;-68
2023/08/25 01:24:33;;;;;;;1.60;1.50;;;23.50;67.40;;;;;;5031631;28;20638;-68
2023/08/25 01:26:58;;;;;;;1.60;1.50;;;23.50;66.50;;;;;;5030506;28;20222;-68
2023/08/25 01:29:24;;;;;;;2.03;1.50;;;23.60;66.60;;;;;;5031343;28;20172;-69
2023/08/25 01:31:49;;;;;;;2.08;1.65;;;23.50;66.60;;;;;;5032454;28;20180;-70
2023/08/25 01:34:15;;;;;;;2.28;2.08;;;23.50;67.40;;;;;;5032204;28;20208;-69
2023/08/25 01:36:53;;;;;;;1.90;1.80;;;23.50;67.40;;;;;;5036774;28;20627;-69
2023/08/25 01:39:18;;;;;;;2.53;1.67;;;23.50;66.60;;;;;;5035019;28;20322;-69
2023/08/25 01:41:49;;;;;;;1.73;1.63;;;23.50;66.50;;;;;;5035842;28;20651;-69
2023/08/25 01:44:18;;;;;;;2.00;1.83;;;23.50;66.60;;;;;;5034831;28;20180;-68
2023/08/25 01:46:46;;;;;;;1.75;1.65;;;23.50;67.10;;;;;;5034636;28;20726;-69
2023/08/25 01:49:13;;;;;;;2.10;1.77;;;23.50;66.60;;;;;;5034717;28;20687;-69
2023/08/25 01:51:39;;;;;;;1.77;1.67;;;23.50;66.60;;;;;;5035291;28;20179;-69
2023/08/25 01:54:04;;;;;;;1.95;1.80;;;23.50;66.60;;;;;;5034171;28;20164;-68
2023/08/25 01:56:30;;;;;;;2.10;1.50;;;23.50;66.60;;;;;;5036185;28;20226;-69
2023/08/25 01:58:55;;;;;;;2.33;2.10;;;23.50;67.50;;;;;;5036113;28;20534;-69
2023/08/25 02:01:21;;;;;;;1.83;1.73;;;23.50;66.60;;;;;;5035322;28;20585;-70
2023/08/25 02:03:46;;;;;;;1.60;1.50;;;23.50;66.60;;;;;;5036321;28;20218;-70
2023/08/25 02:06:12;;;;;;;1.65;1.52;;;23.50;66.70;;;;;;5035741;28;20215;-70
2023/08/25 02:08:37;;;;;;;1.73;1.63;;;23.50;66.60;;;;;;5035297;28;20649;-70
2023/08/25 02:11:03;;;;;;;2.42;1.67;;;23.50;66.70;;;;;;5035818;28;20211;-70
2023/08/25 02:13:29;;;;;;;1.65;1.50;;;23.50;66.70;;;;;;5035826;28;20204;-69
2023/08/25 02:15:54;;;;;;;2.40;1.88;;;23.40;66.60;;;;;;5035355;28;20634;-69
2023/08/25 02:18:20;;;;;;;2.28;1.65;;;23.40;66.60;;;;;;5035629;28;20172;-68
2023/08/25 02:20:45;;;;;;;1.73;1.48;;;23.50;67.50;;;;;;5035970;28;20176;-68
2023/08/25 02:23:11;;;;;;;2.03;1.85;;;23.50;66.60;;;;;;5034836;28;20217;-68
2023/08/25 02:25:37;;;;;;;1.58;1.48;;;23.40;66.60;;;;;;5035724;28;20215;-68
2023/08/25 02:28:02;;;;;;;1.70;1.60;;;23.40;66.50;;;;;;5035439;28;20229;-70
2023/08/25 02:30:28;;;;;;;3.03;1.80;;;23.40;66.60;;;;;;5035052;28;20176;-69
2023/08/25 02:32:57;;;;;;;1.85;1.50;;;23.50;66.60;;;;;;5035573;28;20237;-70
2023/08/25 02:35:22;;;;;;;1.63;1.30;;;23.40;66.60;;;;;;5035486;28;20183;-69
2023/08/25 02:38:01;;;;;;;2.45;1.42;;;23.40;66.60;;;;;;5034766;28;20172;-70
2023/08/25 02:40:27;;;;;;;1.80;1.70;;;23.40;66.60;;;;;;5035383;28;20394;-68
2023/08/25 02:42:54;;;;;;;1.65;1.55;;;23.40;66.60;;;;;;5035027;28;20180;-68
2023/08/25 02:45:21;;;;;;;1.85;1.65;;;23.40;66.60;;;;;;5034321;28;20249;-68
2023/08/25 02:47:47;;;;;;;1.50;1.40;;;23.40;66.60;;;;;;5034587;28;20274;-68
2023/08/25 02:50:12;;;;;;;1.75;1.65;;;23.40;67.50;;;;;;5034511;28;20195;-68
2023/08/25 02:52:38;;;;;;;1.90;1.80;;;23.40;66.60;;;;;;5035370;28;20615;-68
2023/08/25 02:55:05;;;;;;;2.65;1.70;;;23.40;66.60;;;;;;5034980;28;20176;-68
2023/08/25 02:57:30;;;;;;;1.60;1.50;;;23.40;66.60;;;;;;5034415;28;20678;-69
2023/08/25 02:59:56;;;;;;;2.13;1.80;;;23.40;66.60;;;;;;5035253;28;20204;-69
2023/08/25 03:02:22;;;;;;;2.28;1.40;;;23.40;67.50;;;;;;5034773;28;20259;-70
2023/08/25 03:04:47;;;;;;;1.40;1.30;;;23.40;66.60;;;;;;5034259;28;20180;-71
2023/08/25 03:07:13;;;;;;;2.30;1.75;;;23.40;66.60;;;;;;5034500;28;20215;-70
2023/08/25 03:09:38;;;;;;;1.92;1.80;;;23.40;66.60;;;;;;5034895;28;20178;-69
2023/08/25 03:12:04;;;;;;;2.08;1.60;;;23.30;66.60;;;;;;5033843;28;20172;-69
2023/08/25 03:14:30;;;;;;;1.60;1.50;;;23.40;66.60;;;;;;5034623;28;20168;-68
2023/08/25 03:16:55;;;;;;;1.63;1.45;;;23.40;66.70;;;;;;5034927;28;20183;-69
2023/08/25 03:19:21;;;;;;;2.53;1.40;;;23.40;66.70;;;;;;5033796;28;20577;-69
2023/08/25 03:21:46;;;;;;;3.20;1.70;;;23.40;66.70;;;;;;5034897;28;20172;-70
2023/08/25 03:24:12;;;;;;;1.80;1.63;;;23.40;66.70;;;;;;5034400;28;20176;-68
2023/08/25 03:26:38;;;;;;;1.63;1.52;;;23.40;66.70;;;;;;5033704;28;20215;-68
2023/08/25 03:29:03;;;;;;;1.85;1.40;;;23.40;66.70;;;;;;5034509;28;20245;-69
2023/08/25 03:31:29;;;;;;;2.83;1.65;;;23.40;66.70;;;;;;5034539;28;20178;-69
2023/08/25 03:33:54;;;;;;;1.73;1.63;;;23.40;66.70;;;;;;5034001;28;20176;-70
2023/08/25 03:36:20;;;;;;;1.98;1.60;;;23.40;66.70;;;;;;5034007;28;20199;-69
2023/08/25 03:38:45;;;;;;;1.58;1.48;;;23.40;66.70;;;;;;5034313;28;20225;-68
2023/08/25 03:41:11;;;;;;;1.60;1.50;;;23.40;66.80;;;;;;5033252;28;20190;-68
2023/08/25 03:43:36;;;;;;;2.05;1.58;;;23.40;66.70;;;;;;5034436;28;20259;-68
2023/08/25 03:46:03;;;;;;;2.47;1.83;;;23.40;66.80;;;;;;5033986;28;20227;-68
2023/08/25 03:48:29;;;;;;;2.67;1.77;;;23.40;66.70;;;;;;5033292;28;20227;-68
2023/08/25 03:50:54;;;;;;;1.58;1.48;;;23.40;66.70;;;;;;5032963;28;20184;-68
2023/08/25 03:53:20;;;;;;;1.83;1.50;;;23.30;66.80;;;;;;5033126;28;20179;-68
2023/08/25 03:55:45;;;;;;;2.20;1.90;;;23.40;66.80;;;;;;5033947;28;20222;-68
2023/08/25 03:58:12;;;;;;;1.50;1.40;;;23.40;66.80;;;;;;5033164;28;20168;-68
2023/08/25 04:00:37;;;;;;;2.22;1.77;;;23.40;66.80;;;;;;5033358;28;20271;-69
2023/08/25 04:03:04;;;;;;;2.97;1.83;;;23.40;66.80;;;;;;5033738;28;20255;-69
2023/08/25 04:05:30;;;;;;;2.67;1.50;;;23.40;66.80;;;;;;5033605;28;20689;-70
2023/08/25 04:07:56;;;;;;;1.95;1.60;;;23.40;66.80;;;;;;5033173;28;20176;-69
2023/08/25 04:10:22;;;;;;;1.88;1.70;;;23.40;66.80;;;;;;5033238;28;20559;-69
2023/08/25 04:12:48;;;;;;;2.28;1.40;;;23.40;66.90;;;;;;5033906;28;20214;-68
2023/08/25 04:15:13;;;;;;;1.90;1.67;;;23.40;66.80;;;;;;5032530;28;20215;-68
2023/08/25 04:17:39;;;;;;;1.48;1.38;;;23.40;66.90;;;;;;5033745;28;20175;-68
2023/08/25 04:20:05;;;;;;;1.83;1.73;;;23.40;66.80;;;;;;5033412;28;20168;-68
2023/08/25 04:22:30;;;;;;;2.20;1.67;;;23.40;66.90;;;;;;5032801;28;20180;-68
2023/08/25 04:24:56;;;;;;;1.70;1.60;;;23.30;66.80;;;;;;5033343;28;20183;-68
2023/08/25 04:27:21;;;;;;;2.45;1.70;;;23.40;66.90;;;;;;5033345;28;20187;-69
2023/08/25 04:29:48;;;;;;;1.60;1.48;;;23.40;66.90;;;;;;5032573;28;20329;-69
2023/08/25 04:32:15;;;;;;;1.80;1.70;;;23.40;66.90;;;;;;5033081;28;20262;-69
2023/08/25 04:34:41;;;;;;;2.17;1.90;;;23.30;66.90;;;;;;5033355;28;20254;-69
2023/08/25 04:37:06;;;;;;;3.08;1.85;;;23.30;66.80;;;;;;5032303;28;20318;-69
2023/08/25 04:39:32;;;;;;;1.70;1.60;;;23.40;67.80;;;;;;5033319;28;20246;-69
2023/08/25 04:41:57;;;;;;;2.97;1.60;;;23.30;66.90;;;;;;5033230;28;20186;-68
2023/08/25 04:44:23;;;;;;;1.75;1.65;;;23.30;66.90;;;;;;5032316;28;20174;-68
2023/08/25 04:46:48;;;;;;;1.90;1.50;;;23.30;66.90;;;;;;5033205;28;20207;-68
2023/08/25 04:49:14;;;;;;;1.77;1.67;;;23.40;67.00;;;;;;5032562;28;20306;-68
2023/08/25 04:51:39;;;;;;;1.67;1.58;;;23.30;66.90;;;;;;5032438;28;20263;-68
2023/08/25 04:54:06;;;;;;;1.67;1.58;;;23.30;67.00;;;;;;5032599;28;20227;-69
2023/08/25 04:56:31;;;;;;;2.22;1.80;;;23.30;66.90;;;;;;5032732;28;20203;-68
2023/08/25 04:58:57;;;;;;;2.00;1.80;;;23.40;67.10;;;;;;5032893;28;20196;-69
2023/08/25 05:01:23;;;;;;;1.52;1.25;;;23.30;66.90;;;;;;5032674;28;20187;-70
2023/08/25 05:03:48;;;;;;;1.73;1.60;;;23.30;66.90;;;;;;5032205;28;20259;-70
2023/08/25 05:06:14;;;;;;;1.65;1.50;;;23.30;67.00;;;;;;5032628;28;20253;-70
2023/08/25 05:08:40;;;;;;;1.95;1.77;;;23.30;67.00;;;;;;5032135;28;20168;-70
2023/08/25 05:11:05;;;;;;;1.70;1.60;;;23.30;67.80;;;;;;5031958;28;20186;-69
2023/08/25 05:13:31;;;;;;;1.60;1.50;;;23.30;66.90;;;;;;5032914;28;20174;-68
2023/08/25 05:15:56;;;;;;;1.95;1.83;;;23.30;67.00;;;;;;5032860;28;20175;-69
2023/08/25 05:18:24;;;;;;;1.85;1.75;;;23.30;67.00;;;;;;5031742;28;20203;-68
2023/08/25 05:20:50;;;;;;;1.80;1.70;;;23.30;67.00;;;;;;5032727;28;20180;-68
2023/08/25 05:23:15;;;;;;;2.70;2.00;;;23.30;67.00;;;;;;5032391;28;20174;-68
2023/08/25 05:25:41;;;;;;;1.88;1.70;;;23.30;67.00;;;;;;5032162;28;20663;-69
2023/08/25 05:28:06;;;;;;;1.60;1.50;;;23.30;67.00;;;;;;5032542;28;20194;-71
2023/08/25 05:30:32;;;;;;;1.75;1.65;;;23.30;67.00;;;;;;5032926;28;20643;-71
2023/08/25 05:32:57;;;;;;;1.85;1.60;;;23.30;67.00;;;;;;5031662;28;20175;-70
2023/08/25 05:35:23;;;;;;;2.15;1.70;;;23.30;67.00;;;;;;5032554;28;20168;-70
2023/08/25 05:37:49;;;;;;;2.17;1.90;;;23.30;67.00;;;;;;5032536;28;20192;-70
2023/08/25 05:40:14;;;;;;;1.95;1.85;;;23.30;67.00;;;;;;5031662;28;20172;-68
2023/08/25 05:42:40;;;;;;;1.70;1.60;;;23.30;67.00;;;;;;5032662;28;20183;-68
2023/08/25 05:45:07;;;;;;;2.58;1.90;;;23.30;67.10;;;;;;5032106;28;20212;-70
2023/08/25 05:47:32;;;;;;;2.40;2.20;;;23.40;67.10;;;;;;5031605;28;20250;-68
2023/08/25 05:49:58;;;;;;;1.83;1.73;;;23.40;67.10;;;;;;5032331;28;20212;-69
2023/08/25 05:52:24;;;;;;;2.08;1.88;;;23.40;67.10;;;;;;5032260;28;20590;-69
2023/08/25 05:54:50;;;;;;;1.80;1.70;;;23.40;67.10;;;;;;5032083;28;20198;-69
2023/08/25 05:57:16;;;;;;;1.98;1.88;;;23.40;67.20;;;;;;5032203;28;20172;-69
2023/08/25 05:59:41;;;;;;;2.08;1.88;;;23.40;67.20;;;;;;5032345;28;20175;-72
2023/08/25 06:02:07;;;;;;;2.75;2.00;;;23.40;67.10;;;;;;5031354;28;20171;-71
2023/08/25 06:04:32;;;;;;;2.10;1.90;;;23.40;67.10;;;;;;5032403;28;20183;-71
2023/08/25 06:06:58;;;;;;;2.13;1.80;;;23.40;67.10;;;;;;5031277;28;20216;-72
2023/08/25 06:09:23;;;;;;;2.15;1.73;;;23.40;67.10;;;;;;5032228;28;20255;-70
2023/08/25 06:11:49;;;;;;;2.30;2.10;;;23.40;67.10;;;;;;5032098;28;20271;-70
2023/08/25 06:14:15;;;;;;;2.00;1.80;;;23.40;67.10;;;;;;5031351;28;20287;-69
2023/08/25 06:16:41;;;;;;;2.33;1.85;;;23.40;67.20;;;;;;5032407;28;20298;-69
2023/08/25 06:19:07;;;;;;;1.92;1.83;;;23.40;67.20;;;;;;5031910;28;20187;-68
2023/08/25 06:21:32;;;;;;;2.20;2.00;;;23.40;67.20;;;;;;5033959;28;20176;-69
2023/08/25 06:23:58;;;;;;;1.90;1.80;;;23.40;67.10;;;;;;5035773;28;20546;-69
2023/08/25 06:26:23;;;;;;;2.22;1.90;;;23.40;67.10;;;;;;5035434;28;20570;-68
2023/08/25 06:28:51;;;;;;;2.20;1.92;;;23.40;67.20;;;;;;5035132;28;20168;-69
2023/08/25 06:31:16;;;;;;;3.15;2.22;;;23.40;67.20;;;;;;5035311;28;20179;-70
2023/08/25 06:33:42;;;;;;;3.88;2.00;;;23.40;67.20;;;;;;5035542;28;20255;-70
2023/08/25 06:36:07;;;;;;;2.38;2.17;;;23.40;67.30;;;;;;5034372;28;20194;-71
2023/08/25 06:38:33;;;;;;;2.30;2.10;;;23.40;68.10;;;;;;5035704;28;20176;-69
2023/08/25 06:40:59;;;;;;;2.05;1.88;;;23.40;67.20;;;;;;5035339;28;20643;-69
2023/08/25 06:43:24;;;;;;;1.85;1.75;;;23.40;67.30;;;;;;5034758;28;20699;-69
2023/08/25 06:45:50;;;;;;;2.30;2.10;;;23.40;67.30;;;;;;5035366;28;20203;-69
2023/08/25 06:48:15;;;;;;;2.10;1.90;;;23.40;67.30;;;;;;5052823;28;20227;-69
2023/08/25 06:50:41;;;;;;;2.13;1.92;;;23.40;68.10;;;;;;5054349;28;20618;-69
2023/08/25 06:53:07;;;;;;;3.05;2.10;;;23.40;68.20;;;;;;5054741;28;20175;-68
2023/08/25 06:55:36;;;;;;;2.10;2.00;;;23.40;67.30;;;;;;5055320;28;20197;-69
2023/08/25 06:58:02;;;;;;;2.88;2.40;;;23.40;67.40;;;;;;5054374;28;20185;-69
2023/08/25 07:00:28;;;;;;;3.25;2.30;;;23.40;67.40;;;;;;5055094;28;20175;-70
2023/08/25 07:02:54;;;;;;;1.90;1.80;;;23.40;67.40;;;;;;5054861;28;20233;-70
2023/08/25 07:05:19;;;;;;;1.90;1.80;;;23.30;67.30;;;;;;5053733;28;20592;-70
2023/08/25 07:07:45;;;;;;;2.15;1.83;;;23.30;67.30;;;;;;5054992;28;20186;-70
2023/08/25 07:10:13;;;;;;;2.15;2.00;;;23.30;67.40;;;;;;5053786;28;20506;-70
2023/08/25 07:12:39;;;;;;;1.70;1.60;;;23.30;67.40;;;;;;5054868;28;20186;-68
2023/08/25 07:15:07;;;;;;;2.70;1.98;;;23.30;67.40;;;;;;5054460;28;20176;-68
2023/08/25 07:17:33;;;;;;;1.52;1.42;;;23.40;67.60;;;;;;5054003;28;20290;-68
2023/08/25 07:19:58;;;;;;;2.10;1.90;;;23.30;67.40;;;;;;5054360;28;20182;-68
2023/08/25 07:22:24;;;;;;;1.85;1.75;;;23.30;67.30;;;;;;5054533;28;20175;-69
2023/08/25 07:24:53;;;;;;;1.85;1.75;;;23.30;67.40;;;;;;5053996;28;20175;-71
2023/08/25 07:27:21;;;;;;;1.90;1.63;;;23.40;67.50;;;;;;5054066;28;20554;-72
2023/08/25 07:29:47;;;;;;;3.92;2.05;;;23.30;67.40;;;;;;5054479;28;20540;-69
2023/08/25 07:32:12;;;;;;;3.90;2.17;;;23.30;67.40;;;;;;5052654;28;20672;-70
2023/08/25 07:34:38;;;;;;;2.30;2.10;;;23.40;68.40;;;;;;5054202;28;20179;-72
2023/08/25 07:37:05;;;;;;;2.40;2.20;;;23.40;67.50;;;;;;5052801;28;20176;-71
2023/08/25 07:39:30;;;;;;;2.35;1.92;;;23.40;67.40;;;;;;5053516;28;20254;-68
2023/08/25 07:41:56;;;;;;;2.13;2.03;;;23.40;68.50;;;;;;5054222;28;20206;-70
2023/08/25 07:44:21;;;;;;;1.95;1.80;;;23.40;67.70;;;;;;5053878;28;20179;-71
2023/08/25 07:46:47;;;;;;;3.05;2.33;;;23.40;67.60;;;;;;5053340;28;20199;-71
2023/08/25 07:49:12;;;;;;;2.75;2.00;;;23.40;67.60;;;;;;5053475;28;20684;-70
2023/08/25 07:51:38;;;;;;;3.40;2.10;;;23.40;67.60;;;;;;5053965;28;20252;-70
2023/08/25 07:54:04;;;;;;;2.20;1.85;;;23.40;67.60;;;;;;5052809;28;20163;-71
2023/08/25 07:56:30;;;;;;;3.38;2.42;;;23.40;67.60;;;;;;5053941;28;20190;-70
2023/08/25 07:58:55;;;;;;;2.90;2.47;;;23.40;67.50;;;;;;5053821;28;20262;-70
2023/08/25 08:01:21;;;;;;;2.35;2.10;;;23.40;67.60;;;;;;5052530;28;20225;-79
2023/08/25 08:03:47;;;;;;;2.38;2.03;;;23.40;67.90;;;;;;5053947;28;20175;-75
2023/08/25 08:06:12;;;;;;;2.50;2.30;;;23.40;67.80;;;;;;5053344;28;20218;-75
2023/08/25 08:08:38;;;;;;;2.30;2.10;;;23.40;67.80;;;;;;5052971;28;20195;-74
2023/08/25 08:11:04;;;;;;;2.08;1.85;;;23.40;67.90;;;;;;5053451;28;20171;-74
2023/08/25 08:13:29;;;;;;;2.22;1.80;;;23.40;68.00;;;;;;5052690;28;20653;-73
2023/08/25 08:15:55;;;;;;;2.28;2.03;;;23.40;68.90;;;;;;5053436;28;20684;-73
2023/08/25 08:18:21;;;;;;;2.67;2.28;;;23.40;68.00;;;;;;5052967;28;20175;-72
2023/08/25 08:20:48;;;;;;;3.53;2.65;;;23.50;68.20;;;;;;5052754;28;20193;-72
2023/08/25 08:23:13;;;;;;;2.33;2.13;;;23.50;69.20;;;;;;5053134;28;20630;-72
2023/08/25 08:25:39;;;;;;;1.80;1.70;;;23.50;68.20;;;;;;5053341;28;20214;-74
2023/08/25 08:28:06;;;;;;;2.45;2.20;;;23.50;68.20;;;;;;5052394;28;20266;-74
2023/08/25 08:30:32;;;;;;;2.70;2.08;;;23.50;68.30;;;;;;5053304;28;20254;-76
2023/08/25 08:32:57;;;;;;;2.20;2.00;;;23.50;68.50;;;;;;5053112;28;20262;-77
2023/08/25 08:35:23;;;;;;;2.00;1.85;;;23.50;68.40;;;;;;5052642;28;20639;-75
2023/08/25 08:37:49;;;;;;;2.35;2.15;;;23.50;69.30;;;;;;5053943;28;20183;-77
2023/08/25 08:40:15;;;;;;;2.10;2.00;;;23.50;68.60;;;;;;5052569;28;20171;-73
2023/08/25 08:42:40;;;;;;;2.35;2.03;;;23.50;68.50;;;;;;5052845;28;20182;-74
2023/08/25 08:45:10;;;;;;;2.67;2.22;;;23.50;68.50;;;;;;5051473;28;20708;-75
2023/08/25 08:47:35;;;;;;;2.38;2.17;;;23.50;68.60;;;;;;5052912;28;20682;-74
2023/08/25 08:50:02;;;;;;;2.67;1.90;;;23.50;68.60;;;;;;5052029;28;20179;-75
2023/08/25 08:52:28;;;;;;;2.00;1.90;;;23.50;69.40;;;;;;5053114;28;20179;-74
2023/08/25 08:54:57;;;;;;;2.20;2.00;;;23.50;68.50;;;;;;5059399;28;20238;-73
2023/08/25 08:57:24;;;;;;;1.90;1.80;;;23.50;68.50;;;;;;5053142;28;20233;-73
2023/08/25 08:59:51;;;;;;;2.00;1.80;;;23.60;68.40;;;;;;5072859;28;20224;-75
2023/08/25 09:02:17;;;;;;;3.15;2.15;;;23.50;69.10;;;;;;5066801;28;20179;-74
2023/08/25 09:04:42;;;;;;;1.98;1.85;;;23.50;68.30;;;;;;5050982;28;20227;-77
2023/08/25 09:07:08;;;;;;;2.33;2.10;;;23.50;68.30;;;;;;5051456;28;20215;-76
2023/08/25 09:09:34;;;;;;;2.55;2.13;;;23.50;68.20;;;;;;5051936;28;20182;-76
2023/08/25 09:11:59;;;;;;;2.83;2.17;;;23.50;68.20;;;;;;5054530;28;20587;-75
2023/08/25 09:14:26;;;;;;;2.38;2.17;;;23.50;68.20;;;;;;5051657;28;20349;-72
2023/08/25 09:16:56;;;;;;;3.15;2.35;;;23.50;68.10;;;;;;5051859;28;20232;-75
2023/08/25 09:19:22;;;;;;;2.63;1.88;;;23.50;69.00;;;;;;5051400;28;20179;-72
2023/08/25 09:21:48;;;;;;;2.15;1.98;;;23.50;68.10;;;;;;5052503;28;20182;-74
2023/08/25 09:24:20;;;;;;;2.10;2.00;;;23.50;68.10;;;;;;5051526;28;20623;-72
2023/08/25 09:26:46;;;;;;;2.05;1.83;;;23.50;68.10;;;;;;5052440;28;20673;-74
2023/08/25 09:29:12;;;;;;;2.25;2.05;;;23.50;68.10;;;;;;5069500;28;20174;-73
2023/08/25 09:31:37;;;;;;;2.13;1.98;;;23.50;68.10;;;;;;5072858;28;20310;-75
2023/08/25 09:34:05;;;;;;;3.72;1.80;;;23.50;68.10;;;;;;5073303;28;20219;-76
2023/08/25 09:36:30;;;;;;;1.83;1.65;;;23.50;69.00;;;;;;5072503;28;20196;-76
2023/08/25 09:38:56;;;;;;;3.58;2.10;;;23.50;68.00;;;;;;5071945;28;20261;-76
2023/08/25 09:41:28;;;;;;;1.80;1.70;;;23.50;68.00;;;;;;5072038;28;20269;-74
2023/08/25 09:44:00;;;;;;;1.88;1.70;;;23.50;68.00;;;;;;5072551;28;20182;-75
2023/08/25 09:46:32;;;;;;;2.15;1.90;;;23.50;68.00;;;;;;5031847;28;20219;-74
2023/08/25 09:49:01;;;;;;;2.28;2.08;;;23.60;68.00;;;;;;5033568;28;20292;-75
2023/08/25 09:51:37;;;;;;;1.92;1.77;;;23.50;67.90;;;;;;5032995;28;20199;-73
2023/08/25 09:54:08;;;;;;;2.72;2.13;;;23.60;68.00;;;;;;5031216;28;20626;-73
2023/08/25 09:56:34;;;;;;;6.15;2.45;;;23.60;68.00;;;;;;5035348;28;20233;-73
2023/08/25 09:59:01;;;;;;;5.28;2.20;;;23.60;68.30;;;;;;5034259;28;20171;-68
2023/08/25 10:01:27;;;;;;;4.05;1.75;;;23.60;68.10;;;;;;5034800;28;20187;-68
2023/08/25 10:03:53;;;;;;;4.07;2.20;;;23.60;68.30;;;;;;5035039;28;20176;-69
2023/08/25 10:06:18;;;;;;;2.88;2.40;;;23.60;68.20;;;;;;5033707;28;20318;-70
2023/08/25 10:08:44;;;;;;;3.60;2.05;;;23.60;68.40;;;;;;5036058;28;20214;-70
2023/08/25 10:11:09;;;;;;;4.22;2.08;;;23.60;68.30;;;;;;5034354;28;20187;-67
2023/08/25 10:13:35;;;;;;;4.18;2.30;;;23.60;68.30;;;;;;5033997;28;20167;-69
2023/08/25 10:16:01;;;;;;;5.03;2.08;;;23.60;68.30;;;;;;5034631;28;20258;-70
2023/08/25 10:18:27;;;;;;;3.80;2.33;;;23.60;68.40;;;;;;5035692;28;20765;-70
2023/08/25 10:20:53;;;;;;;4.63;2.45;;;23.60;68.30;;;;;;5034002;28;20550;-70
2023/08/25 10:23:18;;;;;;;3.08;2.20;;;23.60;68.30;;;;;;5034453;28;20699;-70
2023/08/25 10:25:44;;;;;;;2.20;2.00;;;23.70;68.30;;;;;;5034490;28;20208;-70
2023/08/25 10:28:09;;;;;;;2.38;1.90;;;23.60;68.30;;;;;;5033262;28;20548;-69
2023/08/25 10:30:35;;;;;;;5.53;2.08;;;23.60;68.40;;;;;;5034312;28;20182;-70
2023/08/25 10:33:08;;;;;;;2.85;1.92;;;23.70;68.30;;;;;;5034137;28;20180;-71
2023/08/25 10:35:44;;;;;;;2.28;2.08;;;23.70;68.40;;;;;;5034799;28;20545;-71
2023/08/25 10:38:18;;;;;;;3.22;1.90;;;23.70;68.30;;;;;;5035373;28;20250;-70
2023/08/25 10:40:48;;;;;;;3.05;1.98;;;23.80;68.20;;;;;;5035268;28;20626;-69
2023/08/25 10:43:14;;;;;;;2.03;1.83;;;23.80;67.90;;;;;;5034541;28;20207;-69
2023/08/25 10:45:39;;;;;;;3.83;2.08;;;23.80;67.80;;;;;;5034238;28;20662;-70
2023/08/25 10:48:06;;;;;;;1.67;1.58;;;23.90;67.80;;;;;;5034734;28;20281;-69
2023/08/25 10:50:32;;;;;;;4.47;2.72;;;23.90;67.70;;;;;;5034270;28;20184;-69
2023/08/25 10:52:57;;;;;;;3.22;2.10;;;24.00;67.40;;;;;;5033998;28;20179;-68
2023/08/25 10:55:28;;;;;;;6.30;3.20;;;24.00;67.40;;;;;;5033270;28;20267;-70
2023/08/25 10:58:03;;;;;;;4.57;2.05;;;24.00;67.50;;;;;;5033990;28;20201;-71
2023/08/25 11:00:30;;;;;;;4.03;2.40;;;24.10;67.30;;;;;;5034939;28;20602;-69
2023/08/25 11:02:56;;;;;;;3.45;2.30;;;24.10;67.30;;;;;;5034314;28;20180;-69
2023/08/25 11:05:40;;;;;;;5.10;2.55;;;24.00;67.40;;;;;;5034809;28;20172;-69
2023/08/25 11:08:25;;;;;;;11.27;3.08;;;24.00;67.50;;;;;;5033735;28;20190;-70
2023/08/25 11:11:13;;;;;;;5.93;2.95;;;24.00;67.70;;;;;;5034323;28;20199;-69
2023/08/25 11:13:39;;;;;;;5.13;2.90;;;24.00;67.90;;;;;;5034775;28;20176;-68
2023/08/25 11:16:08;;;;;;;5.18;2.85;;;23.90;67.90;;;;;;5034777;28;20172;-67
2023/08/25 11:18:34;;;;;;;6.80;2.88;;;23.90;68.00;;;;;;5034162;28;20188;-69
2023/08/25 11:21:00;;;;;;;5.85;3.17;;;23.90;68.10;;;;;;5034503;28;20176;-69
2023/08/25 11:23:38;;;;;;;7.30;3.20;;;23.80;68.20;;;;;;5032674;28;20318;-72
2023/08/25 11:26:03;;;;;;;6.18;3.63;;;23.80;69.20;;;;;;5034584;28;20215;-67
2023/08/25 11:28:29;;;;;;;7.82;3.58;;;23.80;68.50;;;;;;5035515;28;20631;-69
2023/08/25 11:30:55;;;;;;;6.88;3.33;;;23.80;68.30;;;;;;5053394;28;20190;-70
2023/08/25 11:33:21;;;;;;;12.63;3.90;;;23.80;68.50;;;;;;5052401;28;20637;-69
2023/08/25 11:35:46;;;;;;;12.73;4.68;;;23.80;68.50;;;;;;5052580;28;20167;-70
2023/08/25 11:38:12;;;;;;;11.40;3.95;;;23.80;68.50;;;;;;5051556;28;20175;-69
2023/08/25 11:40:41;;;;;;;11.63;4.47;;;23.80;68.60;;;;;;5054037;28;20183;-69
2023/08/25 11:43:06;;;;;;;6.38;3.90;;;23.80;68.60;;;;;;5054058;28;20167;-73
2023/08/25 11:45:32;;;;;;;10.82;3.92;;;23.80;68.60;;;;;;5057346;28;20180;-73
2023/08/25 11:47:58;;;;;;;9.55;3.97;;;23.80;68.50;;;;;;5065884;28;20309;-73
2023/08/25 11:50:24;;;;;;;8.05;4.15;;;23.80;68.60;;;;;;5059372;28;20637;-72
2023/08/25 11:52:50;;;;;;;8.48;3.90;;;23.80;68.50;;;;;;5053363;28;20179;-72
2023/08/25 11:55:15;;;;;;;8.52;4.78;;;23.80;68.50;;;;;;5072221;28;20178;-72
2023/08/25 11:57:41;;;;;;;11.30;4.28;;;23.80;68.60;;;;;;5073796;28;20182;-73
2023/08/25 12:00:07;;;;;;;7.65;4.40;;;23.80;68.60;;;;;;5072955;28;20257;-73
2023/08/25 12:02:33;;;;;;;8.27;4.10;;;23.70;68.50;;;;;;5073714;28;20637;-73
2023/08/25 12:05:04;;;;;;;9.00;3.83;;;23.70;68.50;;;;;;5073520;28;20261;-74
2023/08/25 12:07:30;;;;;;;9.27;4.13;;;23.70;68.50;;;;;;5072877;28;20251;-72
2023/08/25 12:10:00;;;;;;;7.07;3.65;;;23.70;68.50;;;;;;5073599;28;20174;-73
2023/08/25 12:12:28;;;;;;;7.68;3.90;;;23.70;68.60;;;;;;5073698;28;20252;-71
2023/08/25 12:14:54;;;;;;;6.88;3.80;;;23.70;68.70;;;;;;5071784;28;20213;-71
2023/08/25 12:17:29;;;;;;;6.40;3.60;;;23.70;68.60;;;;;;5073293;28;20210;-71
2023/08/25 12:19:55;;;;;;;7.10;3.42;;;23.70;68.70;;;;;;5072443;28;20220;-72
2023/08/25 12:22:22;;;;;;;8.45;3.85;;;23.70;68.70;;;;;;5073127;28;20208;-72
2023/08/25 12:24:47;;;;;;;7.00;3.60;;;23.60;68.70;;;;;;5073609;28;20257;-72
2023/08/25 12:27:13;;;;;;;9.45;3.85;;;23.70;68.70;;;;;;5072217;28;20671;-72
2023/08/25 12:29:39;;;;;;;7.00;3.90;;;23.60;68.60;;;;;;5073243;28;20227;-72
2023/08/25 12:32:07;;;;;;;5.72;4.10;;;23.70;68.50;;;;;;5073151;28;20269;-74
2023/08/25 12:34:33;;;;;;;6.47;3.42;;;23.70;68.40;;;;;;5072525;28;20285;-74
2023/08/25 12:36:58;;;;;;;7.78;3.67;;;23.70;68.30;;;;;;5073284;28;20731;-75
2023/08/25 12:39:24;;;;;;;5.88;3.83;;;23.70;68.40;;;;;;5073266;28;20174;-73
2023/08/25 12:41:50;;;;;;;7.22;3.92;;;23.70;68.30;;;;;;5072537;28;20174;-73